createdAt,value
2018-05-16T00:00:23.449Z,9.50
2018-05-16T00:02:52.518Z,9.50
2018-05-16T00:05:21.604Z,9.50
2018-05-16T00:07:49.891Z,9.40
2018-05-16T00:10:18.222Z,9.40
2018-05-16T00:12:46.505Z,9.40
2018-05-16T00:15:14.825Z,9.40
2018-05-16T00:17:43.138Z,9.40
2018-05-16T00:20:11.541Z,9.40
2018-05-16T00:22:39.917Z,9.40
2018-05-16T00:25:08.998Z,9.30
2018-05-16T00:27:38.057Z,9.30
2018-05-16T00:30:06.374Z,9.30
2018-05-16T00:32:35.439Z,9.30
2018-05-16T00:35:03.726Z,9.30
2018-05-16T00:37:32.066Z,9.30
2018-05-16T00:40:00.432Z,9.30
2018-05-16T00:42:28.796Z,9.30
2018-05-16T00:44:57.105Z,9.20
2018-05-16T00:47:25.411Z,9.20
2018-05-16T00:49:53.708Z,9.30
2018-05-16T00:52:22.833Z,9.30
2018-05-16T00:54:51.120Z,9.30
2018-05-16T00:57:19.442Z,9.40
2018-05-16T00:59:47.764Z,9.30
2018-05-16T01:02:16.054Z,9.30
2018-05-16T01:04:44.401Z,9.40
2018-05-16T01:07:13.585Z,9.30
2018-05-16T01:09:42.697Z,9.30
2018-05-16T01:12:11.788Z,9.30
2018-05-16T01:14:40.905Z,9.30
2018-05-16T01:17:09.216Z,9.30
2018-05-16T01:19:37.645Z,9.20
2018-05-16T01:22:06.706Z,9.20
2018-05-16T01:24:34.998Z,9.20
2018-05-16T01:27:03.287Z,9.30
2018-05-16T01:29:32.353Z,9.20
2018-05-16T01:32:00.714Z,9.20
2018-05-16T01:34:29.045Z,9.10
2018-05-16T01:36:58.201Z,9.10
2018-05-16T01:39:26.497Z,9.10
2018-05-16T01:41:54.880Z,9.10
2018-05-16T01:44:23.160Z,9.10
2018-05-16T01:46:51.521Z,9.00
2018-05-16T01:49:19.866Z,9.00
2018-05-16T01:51:48.208Z,8.90
2018-05-16T01:54:17.338Z,8.90
2018-05-16T01:56:45.662Z,8.80
2018-05-16T01:59:14.757Z,8.70
2018-05-16T02:01:43.055Z,8.70
2018-05-16T02:06:46.844Z,8.60
2018-05-16T02:09:15.143Z,8.70
2018-05-16T02:11:43.440Z,8.60
2018-05-16T02:14:12.521Z,8.50
2018-05-16T02:16:40.868Z,8.50
2018-05-16T02:19:09.217Z,8.60
2018-05-16T02:21:37.504Z,8.50
2018-05-16T02:24:05.792Z,8.50
2018-05-16T02:26:34.110Z,8.50
2018-05-16T02:29:02.419Z,8.40
2018-05-16T02:31:31.545Z,8.30
2018-05-16T02:33:59.842Z,8.20
2018-05-16T02:36:28.189Z,8.20
2018-05-16T02:38:56.501Z,8.20
2018-05-16T02:41:24.840Z,8.10
2018-05-16T02:43:53.201Z,8.00
2018-05-16T02:46:22.290Z,7.90
2018-05-16T02:48:51.359Z,8.00
2018-05-16T02:51:19.677Z,8.00
2018-05-16T02:53:48.785Z,7.90
2018-05-16T02:56:17.065Z,7.80
2018-05-16T02:58:45.393Z,7.70
2018-05-16T03:01:13.709Z,7.60
2018-05-16T03:03:42.009Z,7.50
2018-05-16T03:06:10.322Z,7.50
2018-05-16T03:08:38.640Z,7.50
2018-05-16T03:11:07.779Z,7.50
2018-05-16T03:13:36.069Z,7.50
2018-05-16T03:16:05.281Z,7.30
2018-05-16T03:18:33.604Z,7.30
2018-05-16T03:21:02.684Z,7.10
2018-05-16T03:23:31.751Z,7.20
2018-05-16T03:26:00.046Z,7.10
2018-05-16T03:28:29.160Z,7.00
2018-05-16T03:30:58.353Z,6.90
2018-05-16T03:33:27.445Z,7.00
2018-05-16T03:38:31.011Z,6.90
2018-05-16T03:40:59.379Z,6.80
2018-05-16T03:43:27.693Z,7.00
2018-05-16T03:45:56.135Z,7.00
2018-05-16T03:48:24.450Z,6.90
2018-05-16T03:50:52.765Z,6.80
2018-05-16T03:53:21.840Z,6.90
2018-05-16T03:55:50.153Z,6.90
2018-05-16T03:58:30.382Z,6.90
2018-05-16T04:01:10.556Z,6.90
2018-05-16T04:03:50.663Z,6.90
2018-05-16T04:06:18.979Z,7.10
2018-05-16T04:08:48.050Z,7.10
2018-05-16T04:11:16.413Z,7.10
2018-05-16T04:13:44.744Z,7.20
2018-05-16T04:16:13.116Z,7.40
2018-05-16T04:18:41.465Z,7.40
2018-05-16T04:21:10.601Z,7.50
2018-05-16T04:23:38.914Z,7.50
2018-05-16T04:26:07.215Z,7.60
2018-05-16T04:28:35.574Z,7.70
2018-05-16T04:31:03.872Z,7.80
2018-05-16T04:33:32.181Z,7.90
2018-05-16T04:36:00.586Z,8.00
2018-05-16T04:38:28.885Z,8.00
2018-05-16T04:40:57.228Z,8.10
2018-05-16T04:43:25.527Z,8.20
2018-05-16T04:45:53.880Z,8.20
2018-05-16T04:48:22.961Z,8.40
2018-05-16T04:50:51.261Z,8.40
2018-05-16T04:53:19.582Z,8.50
2018-05-16T04:55:47.888Z,8.50
2018-05-16T04:58:17.074Z,8.50
2018-05-16T05:00:45.461Z,8.50
2018-05-16T05:03:14.524Z,8.70
2018-05-16T05:05:42.858Z,8.70
2018-05-16T05:08:11.991Z,9.10
2018-05-16T05:10:40.337Z,9.10
2018-05-16T05:13:08.675Z,9.30
2018-05-16T05:15:37.053Z,9.30
2018-05-16T05:18:05.385Z,9.50
2018-05-16T05:20:33.694Z,9.60
2018-05-16T05:23:02.104Z,9.70
2018-05-16T05:25:30.402Z,9.70
2018-05-16T05:27:59.544Z,9.70
2018-05-16T05:30:27.906Z,9.70
2018-05-16T05:32:56.341Z,9.70
2018-05-16T05:35:24.747Z,9.80
2018-05-16T05:37:53.811Z,9.90
2018-05-16T05:40:23.129Z,9.90
2018-05-16T05:42:52.213Z,10.20
2018-05-16T05:45:20.528Z,10.10
2018-05-16T05:47:49.631Z,10.10
2018-05-16T05:50:18.051Z,10.10
2018-05-16T05:52:46.433Z,10.20
2018-05-16T05:55:15.514Z,10.20
2018-05-16T05:57:43.913Z,10.20
2018-05-16T06:00:13.078Z,10.20
2018-05-16T06:02:41.441Z,10.20
2018-05-16T06:05:10.641Z,10.10
2018-05-16T06:07:38.997Z,10.10
2018-05-16T06:10:07.370Z,10.10
2018-05-16T06:12:36.580Z,10.10
2018-05-16T06:15:05.626Z,10.10
2018-05-16T06:17:34.066Z,10.10
2018-05-16T06:20:02.416Z,10.20
2018-05-16T06:22:31.530Z,10.10
2018-05-16T06:24:59.882Z,10.10
2018-05-16T06:27:28.241Z,10.20
2018-05-16T06:29:56.718Z,10.40
2018-05-16T06:32:25.172Z,10.60
2018-05-16T06:34:53.551Z,10.70
2018-05-16T06:37:21.916Z,10.70
2018-05-16T06:39:50.306Z,10.70
2018-05-16T06:42:18.746Z,10.70
2018-05-16T06:44:47.135Z,10.80
2018-05-16T06:47:15.481Z,10.80
2018-05-16T06:49:43.877Z,10.90
2018-05-16T06:52:12.253Z,11.00
2018-05-16T06:54:40.720Z,11.00
2018-05-16T06:57:09.847Z,11.10
2018-05-16T06:59:38.184Z,11.10
2018-05-16T07:02:07.329Z,11.30
2018-05-16T07:04:36.436Z,11.40
2018-05-16T07:07:05.635Z,11.60
2018-05-16T07:09:34.728Z,11.60
2018-05-16T07:12:03.857Z,11.80
2018-05-16T07:14:32.219Z,11.80
2018-05-16T07:17:00.562Z,11.70
2018-05-16T07:19:28.963Z,11.60
2018-05-16T07:21:58.170Z,11.90
2018-05-16T07:24:27.282Z,12.00
2018-05-16T07:26:55.641Z,12.00
2018-05-16T07:29:24.755Z,12.40
2018-05-16T07:31:54.164Z,12.40
2018-05-16T07:34:22.545Z,12.40
2018-05-16T07:36:50.887Z,12.50
2018-05-16T07:39:20.048Z,12.80
2018-05-16T07:41:48.412Z,12.80
2018-05-16T07:44:16.824Z,13.30
2018-05-16T07:46:45.187Z,13.60
2018-05-16T07:49:13.580Z,13.90
2018-05-16T07:51:41.908Z,14.20
2018-05-16T07:54:10.261Z,14.40
2018-05-16T07:56:38.640Z,14.10
2018-05-16T07:59:06.981Z,13.80
2018-05-16T08:01:35.385Z,14.00
2018-05-16T08:04:03.740Z,14.30
2018-05-16T08:06:32.110Z,14.50
2018-05-16T08:09:01.240Z,14.70
2018-05-16T08:11:29.586Z,14.60
2018-05-16T08:13:58.010Z,15.00
2018-05-16T08:16:26.359Z,15.30
2018-05-16T08:18:54.761Z,15.40
2018-05-16T08:21:23.105Z,15.10
2018-05-16T08:23:51.449Z,15.00
2018-05-16T08:26:20.573Z,14.90
2018-05-16T08:28:48.921Z,14.80
2018-05-16T08:31:17.426Z,14.40
2018-05-16T08:33:45.739Z,14.40
2018-05-16T08:36:14.135Z,14.20
2018-05-16T08:38:42.454Z,14.50
2018-05-16T08:41:10.806Z,14.70
2018-05-16T08:43:39.195Z,14.60
2018-05-16T08:46:08.369Z,14.40
2018-05-16T08:48:36.752Z,14.30
2018-05-16T08:51:05.160Z,14.30
2018-05-16T08:53:33.550Z,14.40
2018-05-16T08:56:01.945Z,14.60
2018-05-16T08:58:30.378Z,14.70
2018-05-16T09:00:58.841Z,14.70
2018-05-16T09:03:27.228Z,14.70
2018-05-16T09:05:55.589Z,14.40
2018-05-16T09:08:23.933Z,14.40
2018-05-16T09:10:52.300Z,14.50
2018-05-16T09:13:20.647Z,14.60
2018-05-16T09:15:49.038Z,14.60
2018-05-16T09:18:17.477Z,14.50
2018-05-16T09:20:45.821Z,14.40
2018-05-16T09:23:14.200Z,14.50
2018-05-16T09:25:43.349Z,14.90
2018-05-16T09:28:11.743Z,14.80
2018-05-16T09:30:40.141Z,15.00
2018-05-16T09:33:09.301Z,15.40
2018-05-16T09:35:37.646Z,15.40
2018-05-16T09:38:06.024Z,15.70
2018-05-16T09:40:34.487Z,15.80
2018-05-16T09:43:03.734Z,15.50
2018-05-16T09:45:32.078Z,15.40
2018-05-16T09:48:00.516Z,15.20
2018-05-16T09:50:29.680Z,15.20
2018-05-16T09:52:58.051Z,15.20
2018-05-16T09:55:26.441Z,15.20
2018-05-16T09:57:54.932Z,15.00
2018-05-16T10:00:29.067Z,14.80
2018-05-16T10:02:57.448Z,14.50
2018-05-16T10:05:25.963Z,14.40
2018-05-16T10:07:54.393Z,14.30
2018-05-16T10:10:22.792Z,14.00
2018-05-16T10:12:51.196Z,14.00
2018-05-16T10:15:19.579Z,14.20
2018-05-16T10:17:48.700Z,14.40
2018-05-16T10:20:17.160Z,14.40
2018-05-16T10:22:45.668Z,14.60
2018-05-16T10:25:13.997Z,14.50
2018-05-16T10:27:42.409Z,14.30
2018-05-16T10:30:11.554Z,14.30
2018-05-16T10:32:39.925Z,14.30
2018-05-16T10:35:08.277Z,14.30
2018-05-16T10:37:36.665Z,14.30
2018-05-16T10:40:05.056Z,14.10
2018-05-16T10:42:33.423Z,14.30
2018-05-16T10:45:01.885Z,14.20
2018-05-16T10:47:31.375Z,14.90
2018-05-16T10:49:59.555Z,14.90
2018-05-16T10:52:27.939Z,15.00
2018-05-16T10:54:57.038Z,15.10
2018-05-16T10:57:26.192Z,14.80
2018-05-16T10:59:54.626Z,14.70
2018-05-16T11:02:23.045Z,14.40
2018-05-16T11:04:51.404Z,14.20
2018-05-16T11:07:19.808Z,13.80
2018-05-16T11:09:48.895Z,13.40
2018-05-16T11:12:17.269Z,13.40
2018-05-16T11:14:45.618Z,13.00
2018-05-16T11:17:14.024Z,12.80
2018-05-16T11:19:42.413Z,12.60
2018-05-16T11:22:10.765Z,12.70
2018-05-16T11:24:39.188Z,12.80
2018-05-16T11:27:08.222Z,13.00
2018-05-16T11:29:37.341Z,12.90
2018-05-16T11:32:05.791Z,12.90
2018-05-16T11:34:34.162Z,12.90
2018-05-16T11:37:03.296Z,12.80
2018-05-16T11:39:31.645Z,12.70
2018-05-16T11:42:00.762Z,12.70
2018-05-16T11:44:29.120Z,12.70
2018-05-16T11:49:39.349Z,12.70
2018-05-16T11:52:07.752Z,12.40
2018-05-16T11:54:36.086Z,12.40
2018-05-16T11:57:04.450Z,12.30
2018-05-16T11:59:33.570Z,12.00
2018-05-16T12:02:02.120Z,11.90
2018-05-16T12:04:31.319Z,12.00
2018-05-16T12:07:00.550Z,12.20
2018-05-16T12:09:29.025Z,12.20
2018-05-16T12:11:57.361Z,12.30
2018-05-16T12:14:26.600Z,12.50
2018-05-16T12:16:54.971Z,12.50
2018-05-16T12:19:23.346Z,12.60
2018-05-16T12:21:52.496Z,12.90
2018-05-16T12:24:20.944Z,12.90
2018-05-16T12:26:49.449Z,12.90
2018-05-16T12:29:17.909Z,12.80
2018-05-16T12:31:46.230Z,12.90
2018-05-16T12:34:14.649Z,12.80
2018-05-16T12:36:43.778Z,12.80
2018-05-16T12:39:13.044Z,12.70
2018-05-16T12:41:41.456Z,12.70
2018-05-16T12:44:09.747Z,12.80
2018-05-16T12:46:38.335Z,12.90
2018-05-16T12:49:07.385Z,12.90
2018-05-16T12:51:36.531Z,12.80
2018-05-16T12:54:04.896Z,12.80
2018-05-16T12:56:33.962Z,12.50
2018-05-16T12:59:02.296Z,12.40
2018-05-16T13:01:30.611Z,12.30
2018-05-16T13:03:59.019Z,12.20
2018-05-16T13:06:27.315Z,12.00
2018-05-16T13:08:55.675Z,11.90
2018-05-16T13:11:24.020Z,11.90
2018-05-16T13:13:53.127Z,11.90
2018-05-16T13:16:21.485Z,11.90
2018-05-16T13:18:50.572Z,12.20
2018-05-16T13:21:18.961Z,12.10
2018-05-16T13:23:47.311Z,12.30
2018-05-16T13:26:15.678Z,12.50
2018-05-16T13:28:44.797Z,12.60
2018-05-16T13:31:13.110Z,12.60
2018-05-16T13:33:42.338Z,12.70
2018-05-16T13:36:16.431Z,12.70
2018-05-16T13:38:44.810Z,12.70
2018-05-16T13:41:13.123Z,12.60
2018-05-16T13:43:41.426Z,12.50
2018-05-16T13:46:09.832Z,12.30
2018-05-16T13:48:38.956Z,12.20
2018-05-16T13:51:07.348Z,12.20
2018-05-16T13:53:36.578Z,12.30
2018-05-16T13:56:05.667Z,12.40
2018-05-16T13:58:33.974Z,12.40
2018-05-16T14:01:03.064Z,12.30
2018-05-16T14:03:31.444Z,12.30
2018-05-16T14:06:00.542Z,12.30
2018-05-16T14:08:29.633Z,12.50
2018-05-16T14:10:58.004Z,12.40
2018-05-16T14:13:26.325Z,12.60
2018-05-16T14:15:54.760Z,12.90
2018-05-16T14:18:24.747Z,13.30
2018-05-16T14:20:53.228Z,13.30
2018-05-16T14:23:21.525Z,13.50
2018-05-16T14:25:50.661Z,13.80
2018-05-16T14:28:19.779Z,13.80
2018-05-16T14:30:48.117Z,13.70
2018-05-16T14:33:16.454Z,13.80
2018-05-16T14:35:44.874Z,13.70
2018-05-16T14:38:13.259Z,13.60
2018-05-16T14:40:42.533Z,13.70
2018-05-16T14:43:11.697Z,14.10
2018-05-16T14:45:40.089Z,14.00
2018-05-16T14:48:08.462Z,14.40
2018-05-16T14:50:36.790Z,14.90
2018-05-16T14:53:05.167Z,15.40
2018-05-16T14:55:33.510Z,15.80
2018-05-16T14:58:01.856Z,16.20
2018-05-16T15:00:30.968Z,16.60
2018-05-16T15:02:59.310Z,16.60
2018-05-16T15:05:27.764Z,17.00
2018-05-16T15:07:56.094Z,17.50
2018-05-16T15:10:24.536Z,17.80
2018-05-16T15:12:53.624Z,18.30
2018-05-16T15:15:22.030Z,18.30
2018-05-16T15:17:51.293Z,19.10
2018-05-16T15:20:19.665Z,19.00
2018-05-16T15:22:48.860Z,19.50
2018-05-16T15:25:18.026Z,19.30
2018-05-16T15:27:46.411Z,19.30
2018-05-16T15:30:14.797Z,19.70
2018-05-16T15:32:43.132Z,20.00
2018-05-16T15:35:11.520Z,19.80
2018-05-16T15:37:39.832Z,19.60
2018-05-16T15:40:08.182Z,19.40
2018-05-16T15:42:37.288Z,19.50
2018-05-16T15:45:06.377Z,19.80
2018-05-16T15:47:35.582Z,20.30
2018-05-16T15:50:04.658Z,20.30
2018-05-16T15:52:33.104Z,20.30
2018-05-16T15:55:01.442Z,20.30
2018-05-16T15:57:30.578Z,18.00
2018-05-16T15:59:59.048Z,17.90
2018-05-16T16:02:27.466Z,17.00
2018-05-16T16:04:55.941Z,16.40
2018-05-16T16:07:24.361Z,16.20
2018-05-16T16:09:53.529Z,16.50
2018-05-16T16:12:21.973Z,16.50
2018-05-16T16:14:51.116Z,16.60
2018-05-16T16:17:20.230Z,16.50
2018-05-16T16:19:49.320Z,16.30
2018-05-16T16:22:18.503Z,16.00
2018-05-16T16:24:46.875Z,16.00
2018-05-16T16:27:15.251Z,15.70
2018-05-16T16:29:44.375Z,15.00
2018-05-16T16:32:13.465Z,14.90
2018-05-16T16:37:10.842Z,14.70
2018-05-16T16:39:39.188Z,14.50
2018-05-16T16:42:07.589Z,14.40
2018-05-16T16:44:37.462Z,14.10
2018-05-16T16:47:05.830Z,14.10
2018-05-16T16:49:34.244Z,14.00
2018-05-16T16:52:02.637Z,13.90
2018-05-16T16:54:30.989Z,13.70
2018-05-16T16:56:59.407Z,13.70
2018-05-16T16:59:27.746Z,13.60
2018-05-16T17:01:56.143Z,13.50
2018-05-16T17:04:24.502Z,13.40
2018-05-16T17:06:52.850Z,13.40
2018-05-16T17:09:21.324Z,13.30
2018-05-16T17:11:49.664Z,13.30
2018-05-16T17:14:18.097Z,13.30
2018-05-16T17:16:46.445Z,13.20
2018-05-16T17:19:15.597Z,13.20
2018-05-16T17:21:43.967Z,13.20
2018-05-16T17:24:12.336Z,13.30
2018-05-16T17:26:40.828Z,13.20
2018-05-16T17:29:09.985Z,13.10
2018-05-16T17:31:39.132Z,13.10
2018-05-16T17:34:08.398Z,13.00
2018-05-16T17:36:37.561Z,13.00
2018-05-16T17:39:06.024Z,12.90
2018-05-16T17:41:34.381Z,12.90
2018-05-16T17:44:02.853Z,12.80
2018-05-16T17:46:32.027Z,12.70
2018-05-16T17:49:01.235Z,12.70
2018-05-16T17:51:30.341Z,12.60
2018-05-16T17:53:58.696Z,12.60
2018-05-16T17:56:27.912Z,12.60
2018-05-16T17:58:56.332Z,12.60
2018-05-16T18:01:24.971Z,12.60
2018-05-16T18:03:53.390Z,12.60
2018-05-16T18:06:21.757Z,12.60
2018-05-16T18:08:50.164Z,12.50
2018-05-16T18:11:18.535Z,12.60
2018-05-16T18:13:59.828Z,12.60
2018-05-16T18:16:39.943Z,12.50
2018-05-16T18:19:09.154Z,12.40
2018-05-16T18:21:38.294Z,12.40
2018-05-16T18:24:06.664Z,12.40
2018-05-16T18:26:35.097Z,12.40
2018-05-16T18:29:04.205Z,12.30
2018-05-16T18:31:32.669Z,12.30
2018-05-16T18:34:01.845Z,12.20
2018-05-16T18:36:31.089Z,12.20
2018-05-16T18:38:59.485Z,12.20
2018-05-16T18:41:27.932Z,12.20
2018-05-16T18:43:56.295Z,12.10
2018-05-16T18:46:25.429Z,12.10
2018-05-16T18:48:54.606Z,12.10
2018-05-16T18:51:23.002Z,12.10
2018-05-16T18:53:51.375Z,12.10
2018-05-16T18:56:19.732Z,12.10
2018-05-16T18:58:48.869Z,12.00
2018-05-16T19:01:17.357Z,12.00
2018-05-16T19:03:45.676Z,12.00
2018-05-16T19:06:14.033Z,12.00
2018-05-16T19:08:42.471Z,12.00
2018-05-16T19:11:11.561Z,12.00
2018-05-16T19:13:40.733Z,12.00
2018-05-16T19:16:09.116Z,12.00
2018-05-16T19:18:37.460Z,12.00
2018-05-16T19:21:06.586Z,11.90
2018-05-16T19:23:34.990Z,11.90
2018-05-16T19:26:03.365Z,11.90
2018-05-16T19:28:32.481Z,11.90
2018-05-16T19:31:00.946Z,11.80
2018-05-16T19:33:29.317Z,11.80
2018-05-16T19:35:58.508Z,11.70
2018-05-16T19:38:27.643Z,11.70
2018-05-16T19:40:55.976Z,11.70
2018-05-16T19:43:25.097Z,11.60
2018-05-16T19:45:53.460Z,11.60
2018-05-16T19:48:22.597Z,11.60
2018-05-16T19:50:50.960Z,11.60
2018-05-16T19:53:19.341Z,11.70
2018-05-16T19:55:47.702Z,11.70
2018-05-16T19:58:16.838Z,11.70
2018-05-16T20:00:45.181Z,11.70
2018-05-16T20:03:14.357Z,11.60
2018-05-16T20:05:42.709Z,11.60
2018-05-16T20:08:11.045Z,11.70
2018-05-16T20:10:39.470Z,11.70
2018-05-16T20:13:07.838Z,11.70
2018-05-16T20:15:36.247Z,11.60
2018-05-16T20:18:04.673Z,11.60
2018-05-16T20:20:33.050Z,11.60
2018-05-16T20:23:02.299Z,11.60
2018-05-16T20:25:30.655Z,11.60
2018-05-16T20:27:59.109Z,11.60
2018-05-16T20:30:28.486Z,11.50
2018-05-16T20:32:56.828Z,11.40
2018-05-16T20:35:25.954Z,11.40
2018-05-16T20:37:54.296Z,11.40
2018-05-16T20:40:22.661Z,11.40
2018-05-16T20:42:50.985Z,11.40
2018-05-16T20:45:19.483Z,11.50
2018-05-16T20:47:47.757Z,11.50
2018-05-16T20:50:16.873Z,11.50
2018-05-16T20:52:45.992Z,11.50
2018-05-16T20:55:14.371Z,11.50
2018-05-16T20:57:42.865Z,11.50
2018-05-16T21:00:11.213Z,11.40
2018-05-16T21:02:39.616Z,11.40
2018-05-16T21:05:08.006Z,11.40
2018-05-16T21:07:36.372Z,11.40
2018-05-16T21:10:04.694Z,11.40
2018-05-16T21:12:33.077Z,11.30
2018-05-16T21:15:01.569Z,11.30
2018-05-16T21:17:29.931Z,11.30
2018-05-16T21:19:58.282Z,11.30
2018-05-16T21:22:26.649Z,11.20
2018-05-16T21:24:54.987Z,11.10
2018-05-16T21:27:24.174Z,11.10
2018-05-16T21:29:52.533Z,11.00
2018-05-16T21:32:21.714Z,10.90
2018-05-16T21:34:50.050Z,10.90
2018-05-16T21:37:18.448Z,10.80
2018-05-16T21:39:46.850Z,10.70
2018-05-16T21:42:15.946Z,10.70
2018-05-16T21:44:44.299Z,10.70
2018-05-16T21:47:12.637Z,10.70
2018-05-16T21:49:40.977Z,10.60
2018-05-16T21:52:09.385Z,10.60
2018-05-16T21:54:37.793Z,10.70
2018-05-16T21:57:06.189Z,10.70
2018-05-16T21:59:35.373Z,10.60
2018-05-16T22:02:04.484Z,10.60
2018-05-16T22:04:33.624Z,10.60
2018-05-16T22:07:01.974Z,10.50
2018-05-16T22:09:30.341Z,10.50
2018-05-16T22:11:59.457Z,10.30
2018-05-16T22:14:27.812Z,10.30
2018-05-16T22:16:56.966Z,10.10
2018-05-16T22:19:26.176Z,10.10
2018-05-16T22:21:55.224Z,10.00
2018-05-16T22:24:23.569Z,10.00
2018-05-16T22:26:51.912Z,9.80
2018-05-16T22:29:21.121Z,9.70
2018-05-16T22:31:56.071Z,9.70
2018-05-16T22:34:31.574Z,9.60
2018-05-16T22:37:05.609Z,9.50
2018-05-16T22:39:40.349Z,9.40
2018-05-16T22:42:14.386Z,9.40
2018-05-16T22:47:52.577Z,9.30
2018-05-16T22:50:20.881Z,9.30
2018-05-16T22:52:49.528Z,9.30
2018-05-16T22:55:17.859Z,9.30
2018-05-16T22:57:46.917Z,9.20
2018-05-16T23:00:27.958Z,9.20
2018-05-16T23:02:56.856Z,9.20
2018-05-16T23:05:25.995Z,9.10
2018-05-16T23:07:55.052Z,9.10
2018-05-16T23:10:23.449Z,9.10
2018-05-16T23:12:51.765Z,9.10
2018-05-16T23:15:20.137Z,9.10
2018-05-16T23:17:48.476Z,9.00
2018-05-16T23:20:17.642Z,9.00
2018-05-16T23:22:46.701Z,9.00
2018-05-16T23:25:14.989Z,9.00
2018-05-16T23:27:44.061Z,8.90
2018-05-16T23:30:12.439Z,8.90
2018-05-16T23:32:40.749Z,9.00
2018-05-16T23:35:09.128Z,9.00
2018-05-16T23:37:37.421Z,8.90
2018-05-16T23:40:06.480Z,8.90
2018-05-16T23:42:34.822Z,8.90
2018-05-16T23:45:03.114Z,8.90
2018-05-16T23:47:31.422Z,8.80
2018-05-16T23:49:59.792Z,8.80
2018-05-16T23:52:28.142Z,8.70
2018-05-16T23:54:56.486Z,8.70
2018-05-16T23:57:25.614Z,8.60
2018-05-16T23:59:53.920Z,8.60
